MSC Suez — HPMS — position and weather

sailwx.info

Track history (hours):
 
Tides and Currents Weather Stations Pressure Air Temp Water Temp Dewpoint Dewpoint Depression Visibility Wind Speed Wind Dir Waves Ship Positions

MSC Suez

Last reported at 2016-May-26 23:32 UTC. Time now 2016-May-27 00:20 UTC.
Position N 59°52' E 030°12'.

Length 237 m; draft 8 m.

Type: Ship. MMSI: 355289000.

Date/timePositionNaut miles runAvg speedWind from/ knotsBaromVisibWave heightAir tempDewpointWater temp
2016-May-26 23:32N 59°52' E 030°12'0 0.0
2016-May-26 22:32N 59°52' E 030°12'0 0.0
2016-May-26 21:32N 59°52' E 030°12'0 0.0
2016-May-26 20:32N 59°52' E 030°12'0 0.0
2016-May-26 19:32N 59°52' E 030°12'0 0.0
2016-May-26 18:32N 59°52' E 030°12'0 0.0
2016-May-26 17:32N 59°52' E 030°12'0 0.0
2016-May-26 16:32N 59°52' E 030°12'0 0.0
2016-May-26 15:29N 59°52' E 030°12'0 0.0
2016-May-26 14:32N 59°52' E 030°12'0 0.0
2016-May-26 13:32N 59°52' E 030°12'0 0.0
2016-May-26 12:32N 59°52' E 030°12'0 0.0
2016-May-26 11:32N 59°52' E 030°12'0 0.0
2016-May-26 10:32N 59°52' E 030°12'0 0.0
2016-May-26 09:32N 59°52' E 030°12'0 0.0
2016-May-26 08:32N 59°52' E 030°12'0 0.0
2016-May-26 07:32N 59°52' E 030°12'0 0.0
2016-May-26 06:32N 59°52' E 030°12'0 0.0
2016-May-26 05:32N 59°52' E 030°12'0 0.0
2016-May-26 04:32N 59°52' E 030°12'0 0.0
2016-May-26 03:32N 59°52' E 030°12'0 0.0
2016-May-26 02:32N 59°52' E 030°12'0 0.0
2016-May-26 01:32N 59°52' E 030°12'0 0.0
2016-May-26 00:32N 59°52' E 030°12'0 0.0
2016-May-25 23:32N 59°52' E 030°12'0 0.0
2016-May-25 22:32N 59°52' E 030°12'0 0.0
2016-May-25 21:32N 59°52' E 030°12'0 0.0
2016-May-25 20:32N 59°52' E 030°12'0 0.0
2016-May-25 19:32N 59°52' E 030°12'0 0.0
2016-May-25 18:32N 59°52' E 030°12'0 0.0
2016-May-25 17:32N 59°52' E 030°12'0 0.0
2016-May-25 16:32N 59°52' E 030°12'0 0.0
2016-May-25 15:32N 59°52' E 030°12'4 3.6
2016-May-25 14:22N 59°54' E 030°05'911.1
2016-May-25 13:33N 59°58' E 029°48'1110.7
2016-May-25 12:33N 60°01' E 029°28'1211.6
2016-May-25 11:33N 60°02' E 029°05'1413.7
2016-May-25 10:33N 60°02' E 028°37'1817.9
2016-May-25 09:33N 60°09' E 028°04'1717.1
2016-May-25 08:33N 60°06' E 027°30'1817.9
2016-May-25 07:33N 59°58' E 026°58'1918.7
2016-May-25 06:33N 59°57' E 026°20'2019.5
2016-May-25 05:33N 59°52' E 025°43'2219.5
2016-May-25 04:26N 59°47' E 025°00'3719.5
2016-May-25 02:32N 59°38' E 023°49'1919.5
2016-May-25 01:33N 59°32' E 023°13'2019.5
2016-May-25 00:33N 59°25' E 022°37'1919.3
2016-May-24 23:33N 59°13' E 022°07'27519.1
2016-May-24 09:09N 55°53' E 016°15'1119.2
2016-May-24 08:33N 55°48' E 015°57'1919.0
2016-May-24 07:33N 55°39' E 015°27'1919.1
2016-May-24 06:34N 55°30' E 014°58'1918.9
2016-May-24 05:34N 55°18' E 014°31'1919.1
2016-May-24 04:34N 55°03' E 014°11'1918.8
2016-May-24 03:34N 54°56' E 013°41'1918.8
2016-May-24 02:34N 54°50' E 013°10'1918.6
2016-May-24 01:33N 54°43' E 012°40'1817.9
2016-May-24 00:33N 54°31' E 012°16'1616.2
2016-May-23 23:33N 54°25' E 011°51'1918.6
2016-May-23 22:33N 54°31' E 011°21'1918.7
2016-May-23 21:33N 54°41' E 010°54'1716.6
2016-May-23 20:33N 54°58' E 010°58'1817.7
2016-May-23 19:33N 55°15' E 011°05'1616.2
2016-May-23 18:33N 55°30' E 010°53'1717.2
2016-May-23 17:33N 55°47' E 010°48'1817.9
2016-May-23 16:33N 56°02' E 011°05'1918.8
2016-May-23 15:33N 56°18' E 011°24'1919.2
2016-May-23 14:33N 56°34' E 011°40'1818.0
2016-May-23 13:34N 56°52' E 011°48'1919.4
2016-May-23 12:33N 57°10' E 011°34'1919.1
2016-May-23 11:33N 57°28' E 011°21'1818.4
2016-May-23 10:33N 57°41' E 010°57'1515.2
2016-May-23 09:33N 57°47' E 010°31'1919.2
2016-May-23 08:33N 57°44' E 009°55'4219.5
2016-May-23 06:23N 57°26' E 008°44'6019.4
2016-May-23 03:18N 56°39' E 007°36'7319.3
2016-May-22 23:32N 55°38' E 006°24'4719.4
2016-May-22 21:06N 54°59' E 005°38'1819.8
2016-May-22 20:10N 54°44' E 005°19'1419.9
2016-May-22 19:28N 54°32' E 005°06'1819.8
2016-May-22 18:33N 54°17' E 004°49'2019.6
2016-May-22 17:33N 53°59' E 004°37'1919.3
2016-May-22 16:33N 53°44' E 004°16'2319.8
2016-May-22 15:24N 53°30' E 003°45'10019.4
2016-May-22 10:14N 52°00' E 002°31'1218.2
2016-May-22 09:33N 51°54' E 002°14'1817.7
2016-May-22 08:33N 51°47' E 001°48'1413.6
2016-May-22 07:34N 51°56' E 001°31'8 8.2
2016-May-22 06:33N 51°57' E 001°18'0 0.0
2016-May-22 05:33N 51°57' E 001°18'0 0.0
2016-May-22 04:33N 51°57' E 001°18'0 0.0
2016-May-22 03:33N 51°57' E 001°18'0 0.0
2016-May-22 02:34N 51°57' E 001°18'0 0.0
2016-May-22 01:33N 51°57' E 001°18'0 0.0
2016-May-22 00:33N 51°57' E 001°18'0 0.0
2016-May-21 23:33N 51°57' E 001°18'0 0.0
2016-May-21 22:33N 51°57' E 001°18'0 0.0
2016-May-21 21:33N 51°57' E 001°18'0 0.0
2016-May-21 20:33N 51°57' E 001°18'0 0.0
2016-May-21 19:33N 51°57' E 001°18'0 0.0
2016-May-21 18:33N 51°57' E 001°18'0 0.0
2016-May-21 17:33N 51°57' E 001°18'0 0.0
2016-May-21 16:34N 51°57' E 001°18'0 0.0
2016-May-21 15:33N 51°57' E 001°18'0 0.0
2016-May-21 14:33N 51°57' E 001°18'0 0.0
2016-May-21 13:33N 51°57' E 001°18'0 0.0
2016-May-21 12:34N 51°57' E 001°18'0 0.0
2016-May-21 11:33N 51°57' E 001°18'0 0.0
2016-May-21 10:33N 51°57' E 001°18'0 0.0
2016-May-21 09:34N 51°57' E 001°18'0 0.0
2016-May-21 08:33N 51°57' E 001°18'0 0.0
2016-May-21 07:33N 51°57' E 001°18'0 0.0
2016-May-21 06:33N 51°57' E 001°18'0 0.0
2016-May-21 05:33N 51°57' E 001°18'0 0.0
2016-May-21 04:33N 51°57' E 001°18'0 0.0
2016-May-21 03:33N 51°57' E 001°18'2 1.9
2016-May-21 02:33N 51°56' E 001°19'1111.5
2016-May-21 01:33N 51°52' E 001°37'3 3.4
2016-May-21 00:33N 51°54' E 001°41'0 0.1
2016-May-20 23:33N 51°54' E 001°41'0 0.2
2016-May-20 22:33N 51°54' E 001°41'0 0.1
2016-May-20 21:33N 51°53' E 001°41'0 0.0
2016-May-20 20:33N 51°53' E 001°41'0 0.1
2016-May-20 19:33N 51°53' E 001°41'0 0.2
2016-May-20 18:33N 51°54' E 001°41'0 0.2
2016-May-20 17:33N 51°54' E 001°41'0 0.1
2016-May-20 16:33N 51°54' E 001°41'0 0.0
2016-May-20 15:33N 51°54' E 001°41'0 0.0
2016-May-20 14:33N 51°54' E 001°41'0 0.0
2016-May-20 13:33N 51°54' E 001°42'0 0.0
2016-May-20 12:33N 51°54' E 001°42'0 0.0
2016-May-20 11:33N 51°54' E 001°41'0 0.1
2016-May-20 10:33N 51°54' E 001°42'0 0.2
2016-May-20 09:33N 51°53' E 001°41'0 0.0
2016-May-20 08:33N 51°53' E 001°41'0 0.0
2016-May-20 07:33N 51°53' E 001°41'0 0.2
2016-May-20 06:33N 51°53' E 001°42'0 0.2
2016-May-20 05:33N 51°54' E 001°42'0 0.0
2016-May-20 04:33N 51°54' E 001°42'0 0.0
2016-May-20 03:33N 51°54' E 001°42'0 0.0
2016-May-20 02:33N 51°54' E 001°42'0 0.0
2016-May-20 01:33N 51°54' E 001°42'0 0.0
2016-May-20 00:33N 51°54' E 001°42'0 0.0
2016-May-19 23:33N 51°54' E 001°42'3 3.0
2016-May-19 22:33N 51°52' E 001°45'1111.2
2016-May-19 21:33N 51°41' E 001°49'1212.3
2016-May-19 20:34N 51°29' E 001°54'1313.2
2016-May-19 19:33N 51°22' E 002°12'1615.7
2016-May-19 18:34N 51°23' E 002°37'1413.9
2016-May-19 17:33N 51°23' E 002°59'1817.7
2016-May-19 16:34N 51°25' E 003°27'1010.2
2016-May-19 15:34N 51°23' E 003°43'1211.9
2016-May-19 14:34N 51°23' E 004°02'9 9.3
2016-May-19 13:33N 51°20' E 004°16'3 2.6
2016-May-19 12:30N 51°18' E 004°15'0 0.0
2016-May-19 11:27N 51°18' E 004°15'0 0.0
2016-May-19 10:33N 51°18' E 004°15'0 0.0
2016-May-19 09:33N 51°18' E 004°15'0 0.0
2016-May-19 08:33N 51°18' E 004°15'0 0.0
2016-May-19 07:33N 51°18' E 004°15'1 0.8
2016-May-19 06:33N 51°18' E 004°16'3 2.7
2016-May-19 05:34N 51°21' E 004°17'0 0.5
2016-May-19 04:33N 51°21' E 004°18'2 1.7
2016-May-19 03:33N 51°20' E 004°20'0 0.0
2016-May-19 02:33N 51°20' E 004°20'0 0.0
2016-May-19 01:33N 51°20' E 004°20'0 0.0
2016-May-19 00:33N 51°20' E 004°20'0 0.0
2016-May-18 23:33N 51°20' E 004°20'0 0.0
2016-May-18 22:33N 51°20' E 004°20'0 0.0
2016-May-18 21:33N 51°20' E 004°20'0 0.0
2016-May-18 20:33N 51°20' E 004°20'0 0.0
2016-May-18 19:34N 51°20' E 004°20'0 0.0
2016-May-18 18:34N 51°20' E 004°20'0 0.0
2016-May-18 17:33N 51°20' E 004°20'0 0.0
2016-May-18 16:34N 51°20' E 004°20'0 0.0
2016-May-18 15:31N 51°20' E 004°20'0 0.0
2016-May-18 14:31N 51°20' E 004°20'0 0.0
2016-May-18 13:31N 51°20' E 004°20'0 0.0
2016-May-18 12:31N 51°20' E 004°20'0 0.0
2016-May-18 11:31N 51°20' E 004°20'0 0.0
2016-May-18 10:33N 51°20' E 004°20'2 1.9
2016-May-18 09:34N 51°21' E 004°17'0 0.2
2016-May-18 08:33N 51°21' E 004°17'8 7.6
2016-May-18 07:33N 51°22' E 004°05'1010.2
2016-May-18 06:33N 51°21' E 003°49'1111.0
2016-May-18 05:34N 51°25' E 003°33'1616.0
2016-May-18 04:34N 51°24' E 003°07'1211.6
2016-May-18 03:32N 51°36' E 003°10'1515.0
2016-May-18 02:33N 51°50' E 003°18'3812.6
2016-May-17 23:33N 52°27' E 003°29'1110.7
2016-May-17 22:33N 52°38' E 003°31'2411.8
2016-May-17 20:32N 52°56' E 003°56'7414.4
2016-May-17 15:25N 54°00' E 004°55'1515.7
2016-May-17 14:29N 54°14' E 005°05'23516.8
2016-May-17 00:28N 57°30' E 008°55'1516.7
2016-May-16 23:34N 57°39' E 009°18'  
Track history (hours):
 
Tides and Currents Weather Stations Pressure Air Temp Water Temp Dewpoint Dewpoint Depression Visibility Wind Speed Wind Dir Waves Ship Positions

MSC Suez

Last reported at 2016-May-26 23:32 UTC. Time now 2016-May-27 00:20 UTC.
Position N 59°52' E 030°12'.

Length 237 m; draft 8 m.

Type: Ship. MMSI: 355289000.

Date/timePositionNaut miles runAvg speedWind from/ knotsBaromVisibWave heightAir tempDewpointWater temp
2016-May-26 23:32N 59°52' E 030°12'0 0.0
2016-May-26 22:32N 59°52' E 030°12'0 0.0
2016-May-26 21:32N 59°52' E 030°12'0 0.0
2016-May-26 20:32N 59°52' E 030°12'0 0.0
2016-May-26 19:32N 59°52' E 030°12'0 0.0
2016-May-26 18:32N 59°52' E 030°12'0 0.0
2016-May-26 17:32N 59°52' E 030°12'0 0.0
2016-May-26 16:32N 59°52' E 030°12'0 0.0
2016-May-26 15:29N 59°52' E 030°12'0 0.0
2016-May-26 14:32N 59°52' E 030°12'0 0.0
2016-May-26 13:32N 59°52' E 030°12'0 0.0
2016-May-26 12:32N 59°52' E 030°12'0 0.0
2016-May-26 11:32N 59°52' E 030°12'0 0.0
2016-May-26 10:32N 59°52' E 030°12'0 0.0
2016-May-26 09:32N 59°52' E 030°12'0 0.0
2016-May-26 08:32N 59°52' E 030°12'0 0.0
2016-May-26 07:32N 59°52' E 030°12'0 0.0
2016-May-26 06:32N 59°52' E 030°12'0 0.0
2016-May-26 05:32N 59°52' E 030°12'0 0.0
2016-May-26 04:32N 59°52' E 030°12'0 0.0
2016-May-26 03:32N 59°52' E 030°12'0 0.0
2016-May-26 02:32N 59°52' E 030°12'0 0.0
2016-May-26 01:32N 59°52' E 030°12'0 0.0
2016-May-26 00:32N 59°52' E 030°12'0 0.0
2016-May-25 23:32N 59°52' E 030°12'0 0.0
2016-May-25 22:32N 59°52' E 030°12'0 0.0
2016-May-25 21:32N 59°52' E 030°12'0 0.0
2016-May-25 20:32N 59°52' E 030°12'0 0.0
2016-May-25 19:32N 59°52' E 030°12'0 0.0
2016-May-25 18:32N 59°52' E 030°12'0 0.0
2016-May-25 17:32N 59°52' E 030°12'0 0.0
2016-May-25 16:32N 59°52' E 030°12'0 0.0
2016-May-25 15:32N 59°52' E 030°12'4 3.6
2016-May-25 14:22N 59°54' E 030°05'911.1
2016-May-25 13:33N 59°58' E 029°48'1110.7
2016-May-25 12:33N 60°01' E 029°28'1211.6
2016-May-25 11:33N 60°02' E 029°05'1413.7
2016-May-25 10:33N 60°02' E 028°37'1817.9
2016-May-25 09:33N 60°09' E 028°04'1717.1
2016-May-25 08:33N 60°06' E 027°30'1817.9
2016-May-25 07:33N 59°58' E 026°58'1918.7
2016-May-25 06:33N 59°57' E 026°20'2019.5
2016-May-25 05:33N 59°52' E 025°43'2219.5
2016-May-25 04:26N 59°47' E 025°00'3719.5
2016-May-25 02:32N 59°38' E 023°49'1919.5
2016-May-25 01:33N 59°32' E 023°13'2019.5
2016-May-25 00:33N 59°25' E 022°37'1919.3
2016-May-24 23:33N 59°13' E 022°07'27519.1
2016-May-24 09:09N 55°53' E 016°15'1119.2
2016-May-24 08:33N 55°48' E 015°57'1919.0
2016-May-24 07:33N 55°39' E 015°27'1919.1
2016-May-24 06:34N 55°30' E 014°58'1918.9
2016-May-24 05:34N 55°18' E 014°31'1919.1
2016-May-24 04:34N 55°03' E 014°11'1918.8
2016-May-24 03:34N 54°56' E 013°41'1918.8
2016-May-24 02:34N 54°50' E 013°10'1918.6
2016-May-24 01:33N 54°43' E 012°40'1817.9
2016-May-24 00:33N 54°31' E 012°16'1616.2
2016-May-23 23:33N 54°25' E 011°51'1918.6
2016-May-23 22:33N 54°31' E 011°21'1918.7
2016-May-23 21:33N 54°41' E 010°54'1716.6
2016-May-23 20:33N 54°58' E 010°58'1817.7
2016-May-23 19:33N 55°15' E 011°05'1616.2
2016-May-23 18:33N 55°30' E 010°53'1717.2
2016-May-23 17:33N 55°47' E 010°48'1817.9
2016-May-23 16:33N 56°02' E 011°05'1918.8
2016-May-23 15:33N 56°18' E 011°24'1919.2
2016-May-23 14:33N 56°34' E 011°40'1818.0
2016-May-23 13:34N 56°52' E 011°48'1919.4
2016-May-23 12:33N 57°10' E 011°34'1919.1
2016-May-23 11:33N 57°28' E 011°21'1818.4
2016-May-23 10:33N 57°41' E 010°57'1515.2
2016-May-23 09:33N 57°47' E 010°31'1919.2
2016-May-23 08:33N 57°44' E 009°55'4219.5
2016-May-23 06:23N 57°26' E 008°44'6019.4
2016-May-23 03:18N 56°39' E 007°36'7319.3
2016-May-22 23:32N 55°38' E 006°24'4719.4
2016-May-22 21:06N 54°59' E 005°38'1819.8
2016-May-22 20:10N 54°44' E 005°19'1419.9
2016-May-22 19:28N 54°32' E 005°06'1819.8
2016-May-22 18:33N 54°17' E 004°49'2019.6
2016-May-22 17:33N 53°59' E 004°37'1919.3
2016-May-22 16:33N 53°44' E 004°16'2319.8
2016-May-22 15:24N 53°30' E 003°45'10019.4
2016-May-22 10:14N 52°00' E 002°31'1218.2
2016-May-22 09:33N 51°54' E 002°14'1817.7
2016-May-22 08:33N 51°47' E 001°48'1413.6
2016-May-22 07:34N 51°56' E 001°31'8 8.2
2016-May-22 06:33N 51°57' E 001°18'0 0.0
2016-May-22 05:33N 51°57' E 001°18'0 0.0
2016-May-22 04:33N 51°57' E 001°18'0 0.0
2016-May-22 03:33N 51°57' E 001°18'0 0.0
2016-May-22 02:34N 51°57' E 001°18'0 0.0
2016-May-22 01:33N 51°57' E 001°18'0 0.0
2016-May-22 00:33N 51°57' E 001°18'0 0.0
2016-May-21 23:33N 51°57' E 001°18'0 0.0
2016-May-21 22:33N 51°57' E 001°18'0 0.0
2016-May-21 21:33N 51°57' E 001°18'0 0.0
2016-May-21 20:33N 51°57' E 001°18'0 0.0
2016-May-21 19:33N 51°57' E 001°18'0 0.0
2016-May-21 18:33N 51°57' E 001°18'0 0.0
2016-May-21 17:33N 51°57' E 001°18'0 0.0
2016-May-21 16:34N 51°57' E 001°18'0 0.0
2016-May-21 15:33N 51°57' E 001°18'0 0.0
2016-May-21 14:33N 51°57' E 001°18'0 0.0
2016-May-21 13:33N 51°57' E 001°18'0 0.0
2016-May-21 12:34N 51°57' E 001°18'0 0.0
2016-May-21 11:33N 51°57' E 001°18'0 0.0
2016-May-21 10:33N 51°57' E 001°18'0 0.0
2016-May-21 09:34N 51°57' E 001°18'0 0.0
2016-May-21 08:33N 51°57' E 001°18'0 0.0
2016-May-21 07:33N 51°57' E 001°18'0 0.0
2016-May-21 06:33N 51°57' E 001°18'0 0.0
2016-May-21 05:33N 51°57' E 001°18'0 0.0
2016-May-21 04:33N 51°57' E 001°18'0 0.0
2016-May-21 03:33N 51°57' E 001°18'2 1.9
2016-May-21 02:33N 51°56' E 001°19'1111.5
2016-May-21 01:33N 51°52' E 001°37'3 3.4
2016-May-21 00:33N 51°54' E 001°41'0 0.1
2016-May-20 23:33N 51°54' E 001°41'0 0.2
2016-May-20 22:33N 51°54' E 001°41'0 0.1
2016-May-20 21:33N 51°53' E 001°41'0 0.0
2016-May-20 20:33N 51°53' E 001°41'0 0.1
2016-May-20 19:33N 51°53' E 001°41'0 0.2
2016-May-20 18:33N 51°54' E 001°41'0 0.2
2016-May-20 17:33N 51°54' E 001°41'0 0.1
2016-May-20 16:33N 51°54' E 001°41'0 0.0
2016-May-20 15:33N 51°54' E 001°41'0 0.0
2016-May-20 14:33N 51°54' E 001°41'0 0.0
2016-May-20 13:33N 51°54' E 001°42'0 0.0
2016-May-20 12:33N 51°54' E 001°42'0 0.0
2016-May-20 11:33N 51°54' E 001°41'0 0.1
2016-May-20 10:33N 51°54' E 001°42'0 0.2
2016-May-20 09:33N 51°53' E 001°41'0 0.0
2016-May-20 08:33N 51°53' E 001°41'0 0.0
2016-May-20 07:33N 51°53' E 001°41'0 0.2
2016-May-20 06:33N 51°53' E 001°42'0 0.2
2016-May-20 05:33N 51°54' E 001°42'0 0.0
2016-May-20 04:33N 51°54' E 001°42'0 0.0
2016-May-20 03:33N 51°54' E 001°42'0 0.0
2016-May-20 02:33N 51°54' E 001°42'0 0.0
2016-May-20 01:33N 51°54' E 001°42'0 0.0
2016-May-20 00:33N 51°54' E 001°42'0 0.0
2016-May-19 23:33N 51°54' E 001°42'3 3.0
2016-May-19 22:33N 51°52' E 001°45'1111.2
2016-May-19 21:33N 51°41' E 001°49'1212.3
2016-May-19 20:34N 51°29' E 001°54'1313.2
2016-May-19 19:33N 51°22' E 002°12'1615.7
2016-May-19 18:34N 51°23' E 002°37'1413.9
2016-May-19 17:33N 51°23' E 002°59'1817.7
2016-May-19 16:34N 51°25' E 003°27'1010.2
2016-May-19 15:34N 51°23' E 003°43'1211.9
2016-May-19 14:34N 51°23' E 004°02'9 9.3
2016-May-19 13:33N 51°20' E 004°16'3 2.6
2016-May-19 12:30N 51°18' E 004°15'0 0.0
2016-May-19 11:27N 51°18' E 004°15'0 0.0
2016-May-19 10:33N 51°18' E 004°15'0 0.0
2016-May-19 09:33N 51°18' E 004°15'0 0.0
2016-May-19 08:33N 51°18' E 004°15'0 0.0
2016-May-19 07:33N 51°18' E 004°15'1 0.8
2016-May-19 06:33N 51°18' E 004°16'3 2.7
2016-May-19 05:34N 51°21' E 004°17'0 0.5
2016-May-19 04:33N 51°21' E 004°18'2 1.7
2016-May-19 03:33N 51°20' E 004°20'0 0.0
2016-May-19 02:33N 51°20' E 004°20'0 0.0
2016-May-19 01:33N 51°20' E 004°20'0 0.0
2016-May-19 00:33N 51°20' E 004°20'0 0.0
2016-May-18 23:33N 51°20' E 004°20'0 0.0
2016-May-18 22:33N 51°20' E 004°20'0 0.0
2016-May-18 21:33N 51°20' E 004°20'0 0.0
2016-May-18 20:33N 51°20' E 004°20'0 0.0
2016-May-18 19:34N 51°20' E 004°20'0 0.0
2016-May-18 18:34N 51°20' E 004°20'0 0.0
2016-May-18 17:33N 51°20' E 004°20'0 0.0
2016-May-18 16:34N 51°20' E 004°20'0 0.0
2016-May-18 15:31N 51°20' E 004°20'0 0.0
2016-May-18 14:31N 51°20' E 004°20'0 0.0
2016-May-18 13:31N 51°20' E 004°20'0 0.0
2016-May-18 12:31N 51°20' E 004°20'0 0.0
2016-May-18 11:31N 51°20' E 004°20'0 0.0
2016-May-18 10:33N 51°20' E 004°20'2 1.9
2016-May-18 09:34N 51°21' E 004°17'0 0.2
2016-May-18 08:33N 51°21' E 004°17'8 7.6
2016-May-18 07:33N 51°22' E 004°05'1010.2
2016-May-18 06:33N 51°21' E 003°49'1111.0
2016-May-18 05:34N 51°25' E 003°33'1616.0
2016-May-18 04:34N 51°24' E 003°07'1211.6
2016-May-18 03:32N 51°36' E 003°10'1515.0
2016-May-18 02:33N 51°50' E 003°18'3812.6
2016-May-17 23:33N 52°27' E 003°29'1110.7
2016-May-17 22:33N 52°38' E 003°31'2411.8
2016-May-17 20:32N 52°56' E 003°56'7414.4
2016-May-17 15:25N 54°00' E 004°55'1515.7
2016-May-17 14:29N 54°14' E 005°05'23516.8
2016-May-17 00:28N 57°30' E 008°55'1516.7
2016-May-16 23:34N 57°39' E 009°18'  

Dump ship's entire track history